createdAt,value
2019-01-26T00:00:47.263Z,10.20
2019-01-26T00:03:14.668Z,9.60
2019-01-26T00:05:42.123Z,9.57
2019-01-26T00:08:09.523Z,9.10
2019-01-26T00:10:36.972Z,10.07
2019-01-26T00:13:04.335Z,9.40
2019-01-26T00:15:31.846Z,9.63
2019-01-26T00:17:59.306Z,9.17
2019-01-26T00:20:26.797Z,9.67
2019-01-26T00:22:54.239Z,9.00
2019-01-26T00:25:21.712Z,10.03
2019-01-26T00:27:49.196Z,8.77
2019-01-26T00:30:16.545Z,9.43
2019-01-26T00:32:43.868Z,9.03
2019-01-26T00:35:11.237Z,10.70
2019-01-26T00:37:38.693Z,8.77
2019-01-26T00:40:06.476Z,11.00
2019-01-26T00:42:33.969Z,8.13
2019-01-26T00:45:01.429Z,10.33
2019-01-26T00:47:28.949Z,8.70
2019-01-26T00:49:56.402Z,8.77
2019-01-26T00:52:23.747Z,9.57
2019-01-26T00:54:51.129Z,9.43
2019-01-26T00:57:18.527Z,8.93
2019-01-26T00:59:45.956Z,8.07
2019-01-26T01:02:13.358Z,9.23
2019-01-26T01:04:40.762Z,7.67
2019-01-26T01:07:08.153Z,10.13
2019-01-26T01:09:35.676Z,9.33
2019-01-26T01:12:03.170Z,7.97
2019-01-26T01:14:30.630Z,8.93
2019-01-26T01:16:58.245Z,8.40
2019-01-26T01:19:25.719Z,8.40
2019-01-26T01:21:53.231Z,8.57
2019-01-26T01:24:21.952Z,7.73
2019-01-26T01:26:49.359Z,9.90
2019-01-26T01:29:16.792Z,7.93
2019-01-26T01:31:44.155Z,7.83
2019-01-26T01:34:11.595Z,8.83
2019-01-26T01:36:39.119Z,7.87
2019-01-26T01:39:07.911Z,8.60
2019-01-26T01:41:35.349Z,8.43
2019-01-26T01:44:02.846Z,8.60
2019-01-26T01:46:30.229Z,7.53
2019-01-26T01:48:57.706Z,9.93
2019-01-26T01:51:25.165Z,8.90
2019-01-26T01:53:52.656Z,7.60
2019-01-26T01:56:20.142Z,7.77
2019-01-26T01:58:47.496Z,8.17
2019-01-26T02:01:14.908Z,7.40
2019-01-26T02:03:42.328Z,7.73
2019-01-26T02:06:09.787Z,7.67
2019-01-26T02:08:37.270Z,7.70
2019-01-26T02:11:04.656Z,7.33
2019-01-26T02:13:32.039Z,7.20
2019-01-26T02:15:59.369Z,7.63
2019-01-26T02:18:26.714Z,7.87
2019-01-26T02:20:54.173Z,7.73
2019-01-26T02:23:21.532Z,7.10
2019-01-26T02:25:48.975Z,7.73
2019-01-26T02:28:16.442Z,7.47
2019-01-26T02:30:43.882Z,6.70
2019-01-26T02:33:11.359Z,8.03
2019-01-26T02:35:38.808Z,8.23
2019-01-26T02:38:06.313Z,7.17
2019-01-26T02:40:33.765Z,8.07
2019-01-26T02:43:01.249Z,7.83
2019-01-26T02:45:28.613Z,7.77
2019-01-26T02:47:56.076Z,8.90
2019-01-26T02:50:23.459Z,9.17
2019-01-26T02:52:50.954Z,8.33
2019-01-26T02:55:18.392Z,8.97
2019-01-26T02:57:45.762Z,8.30
2019-01-26T03:00:15.954Z,9.57
2019-01-26T03:02:43.285Z,9.03
2019-01-26T03:05:10.654Z,9.13
2019-01-26T03:07:37.993Z,7.57
2019-01-26T03:10:06.908Z,9.67
2019-01-26T03:12:34.398Z,8.67
2019-01-26T03:15:01.772Z,9.20
2019-01-26T03:17:29.266Z,9.40
2019-01-26T03:19:56.769Z,9.33
2019-01-26T03:22:24.297Z,9.63
2019-01-26T03:24:51.755Z,8.87
2019-01-26T03:27:19.196Z,8.63
2019-01-26T03:29:46.676Z,9.87
2019-01-26T03:32:14.153Z,9.80
2019-01-26T03:34:41.649Z,8.07
2019-01-26T03:37:09.098Z,10.07
2019-01-26T03:39:36.621Z,8.37
2019-01-26T03:42:04.173Z,8.00
2019-01-26T03:44:31.660Z,8.20
2019-01-26T03:46:59.077Z,8.50
2019-01-26T03:49:29.446Z,7.60
2019-01-26T03:51:56.815Z,8.23
2019-01-26T03:54:24.905Z,8.10
2019-01-26T03:56:52.271Z,8.43
2019-01-26T03:59:19.765Z,8.63
2019-01-26T04:01:47.313Z,8.37
2019-01-26T04:04:14.671Z,9.03
2019-01-26T04:06:42.148Z,7.93
2019-01-26T04:09:09.585Z,8.60
2019-01-26T04:11:37.041Z,8.07
2019-01-26T04:14:05.010Z,9.77
2019-01-26T04:16:32.470Z,8.53
2019-01-26T04:18:59.838Z,9.27
2019-01-26T04:21:27.428Z,8.00
2019-01-26T04:23:54.933Z,8.60
2019-01-26T04:26:22.429Z,9.67
2019-01-26T04:28:49.908Z,9.70
2019-01-26T04:31:17.375Z,10.50
2019-01-26T04:33:44.846Z,10.50
2019-01-26T04:36:12.325Z,10.83
2019-01-26T04:38:39.787Z,10.63
2019-01-26T04:41:07.274Z,9.93
2019-01-26T04:43:34.724Z,9.37
2019-01-26T04:46:02.207Z,11.07
2019-01-26T04:48:29.656Z,9.80
2019-01-26T04:50:57.023Z,10.70
2019-01-26T04:53:24.474Z,9.93
2019-01-26T04:55:51.863Z,8.07
2019-01-26T04:58:19.356Z,10.30
2019-01-26T05:00:46.819Z,10.33
2019-01-26T05:03:14.271Z,9.77
2019-01-26T05:05:41.745Z,9.30
2019-01-26T05:08:09.187Z,9.73
2019-01-26T05:10:36.658Z,10.33
2019-01-26T05:13:04.176Z,8.63
2019-01-26T05:15:31.628Z,10.20
2019-01-26T05:17:59.090Z,8.53
2019-01-26T05:20:26.441Z,11.10
2019-01-26T05:22:53.959Z,8.60
2019-01-26T05:25:21.394Z,9.67
2019-01-26T05:27:48.899Z,9.17
2019-01-26T05:30:22.129Z,9.47
2019-01-26T05:32:49.616Z,9.23
2019-01-26T05:35:16.975Z,9.07
2019-01-26T05:37:44.335Z,9.47
2019-01-26T05:40:13.001Z,9.23
2019-01-26T05:42:40.468Z,8.77
2019-01-26T05:45:13.249Z,8.27
2019-01-26T05:47:48.407Z,7.63
2019-01-26T05:50:13.117Z,7.97
2019-01-26T05:52:40.558Z,8.63
2019-01-26T05:55:08.278Z,8.30
2019-01-26T05:57:35.764Z,8.90
2019-01-26T06:00:04.520Z,8.70
2019-01-26T06:02:31.977Z,8.57
2019-01-26T06:04:59.465Z,8.73
2019-01-26T06:07:26.912Z,8.53
2019-01-26T06:09:54.495Z,9.37
2019-01-26T06:12:22.329Z,9.93
2019-01-26T06:14:49.807Z,9.63
2019-01-26T06:17:17.253Z,7.70
2019-01-26T06:19:44.733Z,7.43
2019-01-26T06:22:12.261Z,6.47
2019-01-26T06:24:39.783Z,7.47
2019-01-26T06:27:07.295Z,8.07
2019-01-26T06:29:34.855Z,7.97
2019-01-26T06:32:02.287Z,7.03
2019-01-26T06:34:29.773Z,7.77
2019-01-26T06:36:57.321Z,9.00
2019-01-26T06:39:24.778Z,7.53
2019-01-26T06:41:52.261Z,7.53
2019-01-26T06:44:20.069Z,8.13
2019-01-26T06:46:47.567Z,6.87
2019-01-26T06:49:15.051Z,7.13
2019-01-26T06:51:53.137Z,6.07
2019-01-26T06:54:20.679Z,7.40
2019-01-26T06:56:48.167Z,7.83
2019-01-26T06:59:15.649Z,7.83
2019-01-26T07:01:43.125Z,8.73
2019-01-26T07:04:12.348Z,6.90
2019-01-26T07:06:44.174Z,7.43
2019-01-26T07:09:11.562Z,6.50
2019-01-26T07:11:38.925Z,7.67
2019-01-26T07:14:06.381Z,7.60
2019-01-26T07:16:33.825Z,7.43
2019-01-26T07:19:01.300Z,7.10
2019-01-26T07:21:28.951Z,8.10
2019-01-26T07:23:56.405Z,6.47
2019-01-26T07:26:23.778Z,6.37
2019-01-26T07:28:51.237Z,6.60
2019-01-26T07:31:18.703Z,7.07
2019-01-26T07:33:46.160Z,6.67
2019-01-26T07:36:13.515Z,6.37
2019-01-26T07:38:41.021Z,6.63
2019-01-26T07:41:08.520Z,6.33
2019-01-26T07:43:35.888Z,6.33
2019-01-26T07:46:03.625Z,6.67
2019-01-26T07:48:30.983Z,6.33
2019-01-26T07:50:58.459Z,6.83
2019-01-26T07:53:26.075Z,7.53
2019-01-26T07:55:53.540Z,5.83
2019-01-26T07:58:21.119Z,6.93
2019-01-26T08:00:48.621Z,9.73
2019-01-26T08:03:15.958Z,7.13
2019-01-26T08:05:43.433Z,8.70
2019-01-26T08:08:10.943Z,6.83
2019-01-26T08:10:38.406Z,6.37
2019-01-26T08:13:05.896Z,6.73
2019-01-26T08:15:37.527Z,6.37
2019-01-26T08:18:06.653Z,7.53
2019-01-26T08:20:34.037Z,5.20
2019-01-26T08:23:01.547Z,5.63
2019-01-26T08:25:28.928Z,5.47
2019-01-26T08:27:56.309Z,5.77
2019-01-26T08:30:24.173Z,5.27
2019-01-26T08:32:51.932Z,5.30
2019-01-26T08:35:19.545Z,6.10
2019-01-26T08:37:47.668Z,5.37
2019-01-26T08:40:16.085Z,5.03
2019-01-26T08:42:43.476Z,6.43
2019-01-26T08:45:11.935Z,5.50
2019-01-26T08:47:39.388Z,4.60
2019-01-26T08:50:10.427Z,5.37
2019-01-26T08:52:37.957Z,5.73
2019-01-26T08:55:07.857Z,4.07
2019-01-26T08:57:35.302Z,5.27
2019-01-26T09:00:03.631Z,6.30
2019-01-26T09:02:53.672Z,5.10
2019-01-26T09:05:22.874Z,5.90
2019-01-26T09:07:50.347Z,5.03
2019-01-26T09:10:17.888Z,5.90
2019-01-26T09:12:45.412Z,5.60
2019-01-26T09:15:12.995Z,5.63
2019-01-26T09:17:40.539Z,5.53
2019-01-26T09:20:13.371Z,5.70
2019-01-26T09:22:40.870Z,4.93
2019-01-26T09:25:09.545Z,5.43
2019-01-26T09:27:37.507Z,5.20
2019-01-26T09:30:07.086Z,4.10
2019-01-26T09:32:34.559Z,5.90
2019-01-26T09:35:02.001Z,4.57
2019-01-26T09:37:29.510Z,5.10
2019-01-26T09:39:57.032Z,4.67
2019-01-26T09:42:24.418Z,5.40
2019-01-26T09:44:51.936Z,4.87
2019-01-26T09:47:20.204Z,4.97
2019-01-26T09:49:47.704Z,3.93
2019-01-26T09:52:15.216Z,4.90
2019-01-26T09:54:42.703Z,5.17
2019-01-26T09:57:10.153Z,4.17
2019-01-26T09:59:37.612Z,2.90
2019-01-26T10:02:05.118Z,3.93
2019-01-26T10:04:32.576Z,3.40
2019-01-26T10:07:00.029Z,3.27
2019-01-26T10:09:27.498Z,3.30
2019-01-26T10:11:54.880Z,3.10
2019-01-26T10:14:22.387Z,3.20
2019-01-26T10:16:49.901Z,3.07
2019-01-26T10:19:17.469Z,2.60
2019-01-26T10:21:45.193Z,2.90
2019-01-26T10:24:12.564Z,3.07
2019-01-26T10:26:40.021Z,3.70
2019-01-26T10:29:07.472Z,3.37
2019-01-26T10:31:34.880Z,3.43
2019-01-26T10:34:02.261Z,2.90
2019-01-26T10:36:41.939Z,3.87
2019-01-26T10:39:16.972Z,4.20
2019-01-26T10:42:10.895Z,3.97
2019-01-26T10:44:38.405Z,4.03
2019-01-26T10:47:05.852Z,3.37
2019-01-26T10:49:33.354Z,3.70
2019-01-26T10:52:00.833Z,3.67
2019-01-26T10:54:36.034Z,4.10
2019-01-26T10:57:04.117Z,3.97
2019-01-26T10:59:31.626Z,3.40
2019-01-26T11:01:59.166Z,2.57
2019-01-26T11:04:26.654Z,3.30
2019-01-26T11:06:54.154Z,3.27
2019-01-26T11:09:21.634Z,3.53
2019-01-26T11:11:48.997Z,4.33
2019-01-26T11:14:16.479Z,4.07
2019-01-26T11:16:44.088Z,5.07
2019-01-26T11:19:11.428Z,3.50
2019-01-26T11:21:38.889Z,3.43
2019-01-26T11:24:06.387Z,3.40
2019-01-26T11:26:34.161Z,2.80
2019-01-26T11:29:02.817Z,3.63
2019-01-26T11:31:30.546Z,2.97
2019-01-26T11:33:57.934Z,3.33
2019-01-26T11:36:26.977Z,3.40
2019-01-26T11:38:54.442Z,3.27
2019-01-26T11:41:21.919Z,3.80
2019-01-26T11:43:49.607Z,3.87
2019-01-26T11:46:21.428Z,3.37
2019-01-26T11:48:50.813Z,3.93
2019-01-26T11:51:40.793Z,4.00
2019-01-26T11:54:08.303Z,2.90
2019-01-26T11:56:56.746Z,2.50
2019-01-26T11:59:24.245Z,2.77
2019-01-26T12:02:02.240Z,2.70
2019-01-26T12:04:55.023Z,2.87
2019-01-26T12:07:25.851Z,2.87
2019-01-26T12:09:53.315Z,2.73
2019-01-26T12:12:20.835Z,2.47
2019-01-26T12:14:48.303Z,2.80
2019-01-26T12:17:15.798Z,2.77
2019-01-26T12:19:43.194Z,3.27
2019-01-26T12:22:10.739Z,3.17
2019-01-26T12:24:38.204Z,3.30
2019-01-26T12:27:05.713Z,3.43
2019-01-26T12:29:36.758Z,3.57
2019-01-26T12:32:04.754Z,2.80
2019-01-26T12:34:32.125Z,2.13
2019-01-26T12:36:59.630Z,2.47
2019-01-26T12:39:27.090Z,2.80
2019-01-26T12:41:54.537Z,2.80
2019-01-26T12:44:22.028Z,2.20
2019-01-26T12:46:49.461Z,2.77
2019-01-26T12:49:16.844Z,2.60
2019-01-26T12:51:44.333Z,2.80
2019-01-26T12:54:31.876Z,3.27
2019-01-26T12:56:59.267Z,3.47
2019-01-26T12:59:26.734Z,2.87
2019-01-26T13:01:54.432Z,2.97
2019-01-26T13:04:21.926Z,2.70
2019-01-26T13:06:49.448Z,3.17
2019-01-26T13:09:16.982Z,2.97
2019-01-26T13:11:45.024Z,2.90
2019-01-26T13:14:13.882Z,2.37
2019-01-26T13:16:49.819Z,2.20
2019-01-26T13:19:17.204Z,2.30
2019-01-26T13:21:44.639Z,2.30
2019-01-26T13:24:12.038Z,1.80
2019-01-26T13:26:39.523Z,1.97
2019-01-26T13:29:06.970Z,1.90
2019-01-26T13:31:34.440Z,2.03
2019-01-26T13:34:01.917Z,1.77
2019-01-26T13:36:29.314Z,2.20
2019-01-26T13:38:56.784Z,2.03
2019-01-26T13:41:24.199Z,1.90
2019-01-26T13:43:51.597Z,2.07
2019-01-26T13:46:19.094Z,2.10
2019-01-26T13:48:46.533Z,2.50
2019-01-26T13:51:13.926Z,2.40
2019-01-26T13:53:41.482Z,2.40
2019-01-26T13:56:09.127Z,2.00
2019-01-26T13:58:36.690Z,2.50
2019-01-26T14:01:07.044Z,2.10
2019-01-26T14:03:34.534Z,2.20
2019-01-26T14:06:02.024Z,1.90
2019-01-26T14:08:29.478Z,1.77
2019-01-26T14:10:56.938Z,1.60
2019-01-26T14:13:24.406Z,1.67
2019-01-26T14:15:51.828Z,1.60
2019-01-26T14:18:19.214Z,1.77
2019-01-26T14:20:46.698Z,1.70
2019-01-26T14:23:14.263Z,1.47
2019-01-26T14:25:42.488Z,1.70
2019-01-26T14:28:10.069Z,1.57
2019-01-26T14:30:40.163Z,1.70
2019-01-26T14:33:07.634Z,2.00
2019-01-26T14:35:35.116Z,1.80
2019-01-26T14:38:21.983Z,2.23
2019-01-26T14:40:49.437Z,1.37
2019-01-26T14:43:16.964Z,2.30
2019-01-26T14:45:44.523Z,2.13
2019-01-26T14:48:12.082Z,2.10
2019-01-26T14:50:39.513Z,2.10
2019-01-26T14:53:06.985Z,1.93
2019-01-26T14:55:34.509Z,2.00
2019-01-26T14:58:02.219Z,1.83
2019-01-26T15:00:30.631Z,2.13
2019-01-26T15:02:58.174Z,2.03
2019-01-26T15:05:26.170Z,2.17
2019-01-26T15:07:55.629Z,2.87
2019-01-26T15:10:23.242Z,2.37
2019-01-26T15:12:50.760Z,3.03
2019-01-26T15:15:18.511Z,2.27
2019-01-26T15:17:45.959Z,2.07
2019-01-26T15:20:16.207Z,2.37
2019-01-26T15:22:43.701Z,2.37
2019-01-26T15:25:11.167Z,2.53
2019-01-26T15:27:38.641Z,2.20
2019-01-26T15:30:16.125Z,2.13
2019-01-26T15:32:46.632Z,2.63
2019-01-26T15:35:14.010Z,2.17
2019-01-26T15:37:41.529Z,2.00
2019-01-26T15:40:09.194Z,1.87
2019-01-26T15:42:36.713Z,1.80
2019-01-26T15:45:07.337Z,2.37
2019-01-26T15:47:34.837Z,1.97
2019-01-26T15:50:02.381Z,1.83
2019-01-26T15:52:29.843Z,2.40
2019-01-26T15:54:57.304Z,2.63
2019-01-26T15:57:24.790Z,2.50
2019-01-26T15:59:53.470Z,2.97
2019-01-26T16:02:21.121Z,3.53
2019-01-26T16:04:48.582Z,3.50
2019-01-26T16:07:16.140Z,3.23
2019-01-26T16:09:43.593Z,3.20
2019-01-26T16:12:10.952Z,3.00
2019-01-26T16:14:38.375Z,3.83
2019-01-26T16:17:06.967Z,3.43
2019-01-26T16:19:34.431Z,3.67
2019-01-26T16:22:01.927Z,2.90
2019-01-26T16:24:29.566Z,3.27
2019-01-26T16:26:57.078Z,4.67
2019-01-26T16:29:24.661Z,4.73
2019-01-26T16:31:52.155Z,3.20
2019-01-26T16:34:19.601Z,4.43
2019-01-26T16:36:47.047Z,3.10
2019-01-26T16:39:14.579Z,2.63
2019-01-26T16:41:42.075Z,3.20
2019-01-26T16:44:09.547Z,3.03
2019-01-26T16:46:37.051Z,2.50
2019-01-26T16:49:04.606Z,2.67
2019-01-26T16:51:32.094Z,2.97
2019-01-26T16:53:59.551Z,2.00
2019-01-26T16:56:26.908Z,2.03
2019-01-26T16:58:54.319Z,2.17
2019-01-26T17:01:21.862Z,1.90
2019-01-26T17:03:49.376Z,2.20
2019-01-26T17:06:16.957Z,2.13
2019-01-26T17:08:44.425Z,2.27
2019-01-26T17:11:11.893Z,2.60
2019-01-26T17:13:39.295Z,2.23
2019-01-26T17:16:06.681Z,2.17
2019-01-26T17:18:34.039Z,2.20
2019-01-26T17:21:01.461Z,1.73
2019-01-26T17:23:28.969Z,2.20
2019-01-26T17:25:56.398Z,1.97
2019-01-26T17:28:23.793Z,0.97
2019-01-26T17:30:52.871Z,1.40
2019-01-26T17:33:20.320Z,1.60
2019-01-26T17:35:47.797Z,1.73
2019-01-26T17:38:15.151Z,1.30
2019-01-26T17:40:42.637Z,1.50
2019-01-26T17:43:10.098Z,1.80
2019-01-26T17:45:37.599Z,2.33
2019-01-26T17:48:08.817Z,1.63
2019-01-26T17:50:42.054Z,1.97
2019-01-26T17:53:05.700Z,1.70
2019-01-26T17:55:33.423Z,1.87
2019-01-26T17:58:00.902Z,2.37
2019-01-26T18:00:46.161Z,1.80
2019-01-26T18:03:13.673Z,1.57
2019-01-26T18:05:41.041Z,1.00
2019-01-26T18:08:08.665Z,1.47
2019-01-26T18:10:36.101Z,1.57
2019-01-26T18:13:03.563Z,1.33
2019-01-26T18:15:30.936Z,1.30
2019-01-26T18:17:58.258Z,1.57
2019-01-26T18:20:26.166Z,1.60
2019-01-26T18:22:53.938Z,1.57
2019-01-26T18:25:23.174Z,2.10
2019-01-26T18:27:50.620Z,1.90
2019-01-26T18:30:20.964Z,1.30
2019-01-26T18:32:48.348Z,1.50
2019-01-26T18:35:15.865Z,1.13
2019-01-26T18:37:43.295Z,1.50
2019-01-26T18:40:13.945Z,1.27
2019-01-26T18:42:41.508Z,1.30
2019-01-26T18:45:10.435Z,1.10
2019-01-26T18:47:37.915Z,1.20
2019-01-26T18:50:07.635Z,1.80
2019-01-26T18:52:34.978Z,1.80
2019-01-26T18:55:02.401Z,1.33
2019-01-26T18:57:31.078Z,2.73
2019-01-26T18:59:58.529Z,1.70
2019-01-26T19:02:26.078Z,2.10
2019-01-26T19:05:00.962Z,1.70
2019-01-26T19:07:28.378Z,1.50
2019-01-26T19:09:55.826Z,1.03
2019-01-26T19:12:23.198Z,1.43
2019-01-26T19:14:50.744Z,0.97
2019-01-26T19:17:18.270Z,1.03
2019-01-26T19:19:45.726Z,1.00
2019-01-26T19:22:13.204Z,1.00
2019-01-26T19:24:40.540Z,1.30
2019-01-26T19:27:09.464Z,1.23
2019-01-26T19:29:36.937Z,0.90
2019-01-26T19:32:04.524Z,1.07
2019-01-26T19:34:31.976Z,1.20
2019-01-26T19:36:59.498Z,1.13
2019-01-26T19:39:26.952Z,1.00
2019-01-26T19:41:54.417Z,0.97
2019-01-26T19:44:21.921Z,1.10
2019-01-26T19:46:49.346Z,1.17
2019-01-26T19:49:16.765Z,1.30
2019-01-26T19:51:44.140Z,1.43
2019-01-26T19:54:11.602Z,1.10
2019-01-26T19:56:38.996Z,0.97
2019-01-26T19:59:06.520Z,1.03
2019-01-26T20:01:33.946Z,1.17
2019-01-26T20:04:01.343Z,1.07
2019-01-26T20:06:28.826Z,1.17
2019-01-26T20:08:56.584Z,0.97
2019-01-26T20:11:24.015Z,1.53
2019-01-26T20:13:51.494Z,1.07
2019-01-26T20:16:18.930Z,1.13
2019-01-26T20:18:46.309Z,1.17
2019-01-26T20:21:17.643Z,1.03
2019-01-26T20:23:43.175Z,0.97
2019-01-26T20:26:10.669Z,0.90
2019-01-26T20:28:38.060Z,1.40
2019-01-26T20:31:05.485Z,0.97
2019-01-26T20:33:32.850Z,0.90
2019-01-26T20:36:00.221Z,1.47
2019-01-26T20:38:27.696Z,2.00
2019-01-26T20:40:55.169Z,1.60
2019-01-26T20:43:22.649Z,1.53
2019-01-26T20:45:50.010Z,1.43
2019-01-26T20:48:17.687Z,1.20
2019-01-26T20:50:46.229Z,1.30
2019-01-26T20:53:16.190Z,1.40
2019-01-26T20:55:46.330Z,1.30
2019-01-26T20:58:13.939Z,1.70
2019-01-26T21:00:41.577Z,1.80
2019-01-26T21:03:09.005Z,1.53
2019-01-26T21:05:39.104Z,2.03
2019-01-26T21:08:09.205Z,1.87
2019-01-26T21:10:36.763Z,2.33
2019-01-26T21:13:07.443Z,1.23
2019-01-26T21:15:37.605Z,2.67
2019-01-26T21:18:05.168Z,3.30
2019-01-26T21:20:34.885Z,3.80
2019-01-26T21:23:02.375Z,3.07
2019-01-26T21:25:32.291Z,2.07
2019-01-26T21:27:59.841Z,1.53
2019-01-26T21:30:36.553Z,1.47
2019-01-26T21:33:04.243Z,2.73
2019-01-26T21:35:34.555Z,3.80
2019-01-26T21:38:02.043Z,3.83
2019-01-26T21:40:34.376Z,1.97
2019-01-26T21:43:01.903Z,1.80
2019-01-26T21:45:32.235Z,1.50
2019-01-26T21:47:59.670Z,1.60
2019-01-26T21:50:28.979Z,1.33
2019-01-26T21:52:58.887Z,1.40
2019-01-26T21:55:29.406Z,1.40
2019-01-26T21:57:56.981Z,1.67
2019-01-26T22:00:26.455Z,1.90
2019-01-26T22:02:54.145Z,1.50
2019-01-26T22:05:21.701Z,0.93
2019-01-26T22:07:49.398Z,1.20
2019-01-26T22:10:21.090Z,1.10
2019-01-26T22:12:48.684Z,3.17
2019-01-26T22:15:18.753Z,1.87
2019-01-26T22:17:48.312Z,1.90
2019-01-26T22:20:20.716Z,1.67
2019-01-26T22:22:51.563Z,1.87
2019-01-26T22:25:19.594Z,2.07
2019-01-26T22:27:49.452Z,2.23
2019-01-26T22:30:25.855Z,1.00
2019-01-26T22:32:55.629Z,1.23
2019-01-26T22:35:23.601Z,0.80
2019-01-26T22:37:51.285Z,1.07
2019-01-26T22:40:29.373Z,1.20
2019-01-26T22:42:56.956Z,1.20
2019-01-26T22:45:24.809Z,1.40
2019-01-26T22:47:52.255Z,1.03
2019-01-26T22:50:19.885Z,1.07
2019-01-26T22:52:47.515Z,1.00
2019-01-26T22:55:15.611Z,1.10
2019-01-26T22:57:42.998Z,1.10
2019-01-26T23:00:24.558Z,1.27
2019-01-26T23:02:51.948Z,1.20
2019-01-26T23:05:45.572Z,1.40
2019-01-26T23:08:22.017Z,0.83
2019-01-26T23:11:20.531Z,0.60
2019-01-26T23:14:07.022Z,0.90
2019-01-26T23:17:15.438Z,0.60
2019-01-26T23:20:02.119Z,1.23
2019-01-26T23:23:19.677Z,1.07
2019-01-26T23:25:59.294Z,0.63
2019-01-26T23:28:55.679Z,1.20
2019-01-26T23:31:23.171Z,1.20
2019-01-26T23:33:52.696Z,1.13
2019-01-26T23:36:20.329Z,0.90
2019-01-26T23:38:47.886Z,1.00
2019-01-26T23:41:15.327Z,1.00
2019-01-26T23:43:42.757Z,0.83
2019-01-26T23:46:10.262Z,0.90
2019-01-26T23:48:37.718Z,1.40
2019-01-26T23:51:05.298Z,1.10
2019-01-26T23:53:32.779Z,1.00
2019-01-26T23:56:00.215Z,0.80
2019-01-26T23:58:27.591Z,0.93
